Miami, Florida
Traffic Map
Current Weather Conditions
Miami, Florida
Scattered Clouds
Scattered Clouds
24°
Feels Like: 24°
Wind Chill: 24° Ceiling: Unl
Heat Index: 24° Visibility: 10mi
Dew Point: 22° Wind: 6mph
Humidity: 87% Direction: 100° (E)
Pressure: 30.03in Gusts: 0mph
Raw Report DataKMIA 180753Z COR 10005KT 10SM FEW022 SCT060 24/22 A3003 RMK AO2 SLP170 98323 T02390217
Traffic Incident Summary
Active as of:
Severity:
Category:
InformationThere was an issue retrieving the traffic information for this location. Please try a different location or try again shortly.
Advertisements
At Last! Intellicast now available for iPhone and Android